Terminal Aerodrome Forecast
Issued by NWS

Home | Current Version | Previous Version | Text Only | Print | Product List | Glossary Off
Versions: 1 2 3 4 5 6 7 8 9 10 11 12 13 14 15 16 17

674
FTUS43 KICT 262340
TAFRSL
TAF
KRSL 262340Z 2700/2724 VRB04KT P6SM SCT100
     FM270200 30009KT P6SM OVC080
     FM270400 01009KT P6SM SCT100 OVC200
     FM270500 36013KT P6SM BKN015
     FM270600 01013KT P6SM OVC008=

USA.gov is the U.S. government's official web portal to all federal, state and local government web resources and services.